Time;durP1;ratioP1;P1;durP2;ratioP2;P2;SDS_P1;SDS_P2;PMS_P1;PMS_P2;Temp;Humidity;BMP_temperature;BMP_pressure;BME280_temperature;BME280_humidity;BME280_pressure;Samples;Min_cycle;Max_cycle;Signal;HPM_P1;HPM_P2
2024/02/01 00:02:09;;;;;;;17.48;3.67;;;6.30;99.90;;;;;;5068702;28;20048;-46
2024/02/01 00:04:35;;;;;;;23.42;5.22;;;6.20;99.90;;;;;;5068672;28;20059;-45
2024/02/01 00:07:00;;;;;;;22.85;6.07;;;6.10;99.90;;;;;;5068838;28;20033;-46
2024/02/01 00:09:26;;;;;;;20.67;3.85;;;6.00;99.90;;;;;;5068527;28;20033;-46
2024/02/01 00:11:52;;;;;;;20.27;4.22;;;5.90;99.90;;;;;;5068982;28;20112;-46
2024/02/01 00:14:17;;;;;;;16.08;3.20;;;5.80;99.90;;;;;;5068428;28;20033;-45
2024/02/01 00:16:43;;;;;;;23.50;3.40;;;5.70;99.90;;;;;;5067761;28;20053;-46
2024/02/01 00:19:09;;;;;;;19.83;4.15;;;5.50;99.90;;;;;;5068452;28;20063;-48
2024/02/01 00:21:35;;;;;;;22.60;4.07;;;5.50;99.90;;;;;;5068262;28;20350;-47
2024/02/01 00:24:00;;;;;;;22.17;4.47;;;5.40;99.90;;;;;;5068139;28;20028;-45
2024/02/01 00:26:26;;;;;;;19.88;3.30;;;5.40;99.90;;;;;;5068279;28;20178;-46
2024/02/01 00:28:51;;;;;;;23.65;5.40;;;5.30;99.90;;;;;;5068256;28;20032;-46
2024/02/01 00:31:17;;;;;;;21.00;4.65;;;5.20;99.90;;;;;;5067722;28;20025;-46
2024/02/01 00:33:44;;;;;;;20.70;4.32;;;5.10;99.90;;;;;;5068081;28;20029;-45
2024/02/01 00:36:09;;;;;;;16.55;3.78;;;5.10;99.90;;;;;;5068209;28;20029;-45
2024/02/01 00:38:35;;;;;;;23.10;4.15;;;5.00;99.90;;;;;;5067946;28;20048;-44
2024/02/01 00:41:04;;;;;;;17.15;3.60;;;4.90;99.90;;;;;;5067786;28;20049;-46
2024/02/01 00:43:30;;;;;;;18.52;3.45;;;4.90;99.90;;;;;;5066834;28;20029;-45
2024/02/01 00:45:56;;;;;;;17.73;3.28;;;4.80;99.90;;;;;;5067702;28;20037;-45
2024/02/01 00:48:21;;;;;;;18.30;3.95;;;4.80;99.90;;;;;;5066637;28;20059;-45
2024/02/01 00:50:47;;;;;;;19.75;3.13;;;4.70;99.90;;;;;;5067744;28;20048;-45
2024/02/01 00:53:13;;;;;;;21.13;3.83;;;4.60;99.90;;;;;;5067800;28;20044;-45
2024/02/01 00:55:39;;;;;;;18.55;2.83;;;4.60;99.90;;;;;;5067488;28;20017;-47
2024/02/01 00:58:05;;;;;;;17.52;3.00;;;4.60;99.90;;;;;;5067520;28;20021;-45
2024/02/01 01:00:31;;;;;;;27.50;7.88;;;4.60;99.90;;;;;;5067517;28;20083;-45
2024/02/01 01:02:59;;;;;;;54.72;15.48;;;4.60;99.90;;;;;;5067571;28;20056;-45
2024/02/01 01:05:25;;;;;;;24.02;5.72;;;4.60;99.90;;;;;;5067438;28;20140;-46
2024/02/01 01:07:50;;;;;;;22.42;4.57;;;4.50;99.90;;;;;;5067459;28;20051;-45
2024/02/01 01:10:16;;;;;;;12.85;3.15;;;4.50;99.90;;;;;;5067325;28;20060;-45
2024/02/01 01:12:42;;;;;;;16.88;2.95;;;4.50;99.90;;;;;;5067480;28;20033;-47
2024/02/01 01:15:07;;;;;;;18.92;4.10;;;4.40;99.90;;;;;;5066382;28;20027;-47
2024/02/01 01:17:33;;;;;;;23.35;5.40;;;4.30;99.90;;;;;;5066996;28;20276;-46
2024/02/01 01:20:02;;;;;;;24.20;8.02;;;4.40;99.90;;;;;;5067116;28;20082;-46
2024/02/01 01:22:29;;;;;;;25.38;6.18;;;4.40;99.90;;;;;;5067304;28;20084;-45
2024/02/01 01:24:55;;;;;;;22.40;5.45;;;4.50;99.90;;;;;;5067236;28;20037;-45
2024/02/01 01:27:21;;;;;;;25.35;6.07;;;4.60;99.90;;;;;;5066796;28;20159;-45
2024/02/01 01:29:46;;;;;;;25.42;5.82;;;4.50;99.90;;;;;;5067000;28;20274;-46
2024/02/01 01:32:12;;;;;;;21.98;6.10;;;4.40;99.90;;;;;;5066665;28;20175;-45
2024/02/01 01:34:38;;;;;;;40.03;11.75;;;4.40;99.90;;;;;;5066601;28;20036;-45
2024/02/01 01:37:03;;;;;;;32.05;10.80;;;4.30;99.90;;;;;;5066914;28;20032;-45
2024/02/01 01:39:29;;;;;;;17.33;4.57;;;4.30;99.90;;;;;;5066881;28;20028;-45
2024/02/01 01:41:55;;;;;;;31.77;9.18;;;4.30;99.90;;;;;;5066787;28;20067;-46
2024/02/01 01:44:20;;;;;;;26.73;9.13;;;4.40;99.90;;;;;;5066697;28;20035;-45
2024/02/01 01:46:46;;;;;;;18.42;4.97;;;4.40;99.90;;;;;;5066769;28;20025;-45
2024/02/01 01:49:11;;;;;;;17.65;5.15;;;4.30;99.90;;;;;;5066659;28;20039;-45
2024/02/01 01:51:37;;;;;;;16.40;3.95;;;4.20;99.90;;;;;;5066449;28;20084;-45
2024/02/01 01:54:06;;;;;;;17.15;3.50;;;4.10;99.90;;;;;;5065193;28;20028;-46
2024/02/01 01:56:35;;;;;;;14.48;4.00;;;4.10;99.90;;;;;;5049402;28;20152;-45
2024/02/01 01:59:00;;;;;;;23.13;5.00;;;4.10;99.90;;;;;;5066440;28;20041;-46
2024/02/01 02:01:26;;;;;;;27.52;4.60;;;4.10;99.90;;;;;;5065781;28;20025;-45
2024/02/01 02:03:52;;;;;;;12.38;3.10;;;4.20;99.90;;;;;;5065380;28;20036;-46
2024/02/01 02:06:17;;;;;;;15.82;3.40;;;4.20;99.90;;;;;;5065104;28;20025;-46
2024/02/01 02:08:43;;;;;;;17.80;3.55;;;4.30;99.90;;;;;;5066416;28;20056;-46
2024/02/01 02:11:09;;;;;;;21.48;3.10;;;4.20;99.90;;;;;;5066249;28;20037;-45
2024/02/01 02:13:34;;;;;;;12.40;3.72;;;4.20;99.90;;;;;;5065954;28;20040;-50
2024/02/01 02:16:00;;;;;;;16.63;3.65;;;4.20;99.90;;;;;;5065739;28;20113;-45
2024/02/01 02:18:25;;;;;;;16.25;3.25;;;4.20;99.90;;;;;;5065366;28;20040;-48
2024/02/01 02:20:51;;;;;;;23.15;3.47;;;4.10;99.90;;;;;;5065348;28;20095;-48
2024/02/01 02:23:17;;;;;;;10.63;2.50;;;4.10;99.90;;;;;;5064333;28;20091;-45
2024/02/01 02:25:43;;;;;;;22.00;3.25;;;4.10;99.90;;;;;;5064262;28;20108;-46
2024/02/01 02:28:09;;;;;;;16.10;2.72;;;4.00;99.90;;;;;;5065296;28;20029;-46
2024/02/01 02:30:36;;;;;;;10.15;2.30;;;3.90;99.90;;;;;;5065095;28;20332;-46
2024/02/01 02:33:01;;;;;;;13.63;2.90;;;3.90;99.90;;;;;;5064182;28;20275;-46
2024/02/01 02:35:27;;;;;;;16.30;2.72;;;3.90;99.90;;;;;;5064601;28;20051;-45
2024/02/01 02:37:53;;;;;;;14.73;3.05;;;3.90;99.90;;;;;;5064930;28;20214;-46
2024/02/01 02:40:20;;;;;;;15.80;2.83;;;3.70;99.90;;;;;;5064920;28;20028;-45
2024/02/01 02:42:45;;;;;;;12.40;3.15;;;3.60;99.90;;;;;;5065021;28;20285;-45
2024/02/01 02:45:11;;;;;;;18.83;2.95;;;3.50;99.90;;;;;;5064014;28;20052;-45
2024/02/01 02:47:37;;;;;;;16.27;3.35;;;3.40;99.90;;;;;;5063994;28;20287;-45
2024/02/01 02:50:06;;;;;;;11.02;2.45;;;3.40;99.90;;;;;;5064817;28;20052;-44
2024/02/01 02:52:32;;;;;;;18.75;3.38;;;3.50;99.90;;;;;;5065026;28;20028;-45
2024/02/01 02:54:58;;;;;;;16.27;3.30;;;3.40;99.90;;;;;;5064799;28;20075;-46
2024/02/01 02:57:24;;;;;;;12.95;2.70;;;3.50;99.90;;;;;;5063686;28;20088;-48
2024/02/01 02:59:50;;;;;;;13.48;2.90;;;3.50;99.90;;;;;;5064533;28;20106;-46
2024/02/01 03:02:15;;;;;;;13.43;2.95;;;3.60;99.90;;;;;;5064706;28;20043;-47
2024/02/01 03:04:41;;;;;;;15.40;3.35;;;3.60;99.90;;;;;;5063438;28;20044;-46
2024/02/01 03:07:08;;;;;;;12.15;3.33;;;3.50;99.90;;;;;;5064705;28;20033;-47
2024/02/01 03:09:37;;;;;;;18.70;3.45;;;3.50;99.90;;;;;;5064314;28;20297;-48
2024/02/01 03:12:09;;;;;;;11.90;3.25;;;3.50;99.90;;;;;;5063738;28;20024;-48
2024/02/01 03:14:39;;;;;;;12.10;3.45;;;3.40;99.90;;;;;;5063543;28;20077;-48
2024/02/01 03:17:05;;;;;;;14.32;2.63;;;3.50;99.90;;;;;;5024628;28;1147996;-48
2024/02/01 03:19:36;;;;;;;14.75;2.90;;;3.50;99.90;;;;;;5065746;28;20309;-47
2024/02/01 03:22:03;;;;;;;14.05;2.80;;;3.60;99.90;;;;;;5065193;28;20035;-47
2024/02/01 03:24:31;;;;;;;12.98;3.72;;;3.60;99.90;;;;;;5065373;28;20061;-49
2024/02/01 03:27:00;;;;;;;16.38;3.78;;;3.60;99.90;;;;;;5064042;28;20044;-46
2024/02/01 03:29:28;;;;;;;13.25;2.65;;;3.60;99.90;;;;;;5065356;28;20025;-47
2024/02/01 03:31:54;;;;;;;13.35;3.83;;;3.60;99.90;;;;;;5065304;28;20025;-45
2024/02/01 03:34:27;;;;;;;15.00;3.90;;;3.50;99.90;;;;;;5065238;28;20041;-45
2024/02/01 03:36:52;;;;;;;10.23;2.45;;;3.50;99.90;;;;;;5064366;28;20023;-45
2024/02/01 03:39:25;;;;;;;12.93;2.50;;;3.40;99.90;;;;;;5064712;28;20129;-46
2024/02/01 03:41:52;;;;;;;10.60;3.05;;;3.40;99.90;;;;;;5065014;28;20021;-45
2024/02/01 03:44:18;;;;;;;12.38;2.33;;;3.40;99.90;;;;;;5065287;28;20025;-45
2024/02/01 03:46:44;;;;;;;13.27;3.00;;;3.40;99.90;;;;;;5064054;28;20310;-45
2024/02/01 03:49:09;;;;;;;17.73;2.72;;;3.40;99.90;;;;;;5064153;28;20025;-45
2024/02/01 03:51:36;;;;;;;12.68;2.42;;;3.40;99.90;;;;;;5047204;28;20231;-45
2024/02/01 03:54:08;;;;;;;11.65;2.55;;;3.40;99.90;;;;;;5065051;28;20052;-45
2024/02/01 03:56:40;;;;;;;15.40;2.70;;;3.30;99.90;;;;;;5064975;28;20040;-46
2024/02/01 03:59:11;;;;;;;20.45;3.40;;;3.30;99.90;;;;;;5065012;28;20025;-48
2024/02/01 04:01:37;;;;;;;12.02;2.25;;;3.30;99.90;;;;;;5064875;28;20029;-48
2024/02/01 04:04:05;;;;;;;12.55;2.55;;;3.30;99.90;;;;;;5064971;28;20170;-46
2024/02/01 04:06:34;;;;;;;14.82;2.70;;;3.20;99.90;;;;;;5064919;28;20052;-48
2024/02/01 04:09:00;;;;;;;14.32;3.20;;;3.10;99.90;;;;;;5064009;28;20092;-46
2024/02/01 04:11:29;;;;;;;14.18;2.78;;;3.10;99.90;;;;;;5064339;28;20032;-48
2024/02/01 04:13:56;;;;;;;13.27;2.92;;;3.10;99.90;;;;;;5064989;28;20029;-48
2024/02/01 04:16:21;;;;;;;15.23;2.65;;;3.00;99.90;;;;;;5066692;28;20079;-48
2024/02/01 04:18:47;;;;;;;11.77;2.50;;;3.00;99.90;;;;;;5068587;28;20270;-45
2024/02/01 04:21:12;;;;;;;14.10;2.58;;;2.90;99.90;;;;;;5068463;28;20045;-46
2024/02/01 04:23:38;;;;;;;16.88;2.85;;;2.90;99.90;;;;;;5068303;28;20088;-45
2024/02/01 04:26:05;;;;;;;15.88;2.60;;;3.00;99.90;;;;;;5068400;28;20021;-45
2024/02/01 04:28:33;;;;;;;10.77;2.30;;;3.10;99.90;;;;;;5068249;28;20032;-45
2024/02/01 04:31:01;;;;;;;16.58;2.60;;;3.20;99.90;;;;;;5067635;28;20414;-45
2024/02/01 04:33:27;;;;;;;10.60;2.33;;;3.20;99.90;;;;;;5068076;28;20259;-46
2024/02/01 04:35:53;;;;;;;14.35;3.05;;;3.20;99.90;;;;;;5067906;28;20051;-47
2024/02/01 04:38:20;;;;;;;26.80;4.38;;;3.30;99.90;;;;;;5067018;28;20290;-45
2024/02/01 04:40:46;;;;;;;18.45;5.32;;;3.30;99.90;;;;;;5068068;28;20268;-48
2024/02/01 04:43:11;;;;;;;20.60;7.70;;;3.30;99.90;;;;;;5068034;28;20033;-48
2024/02/01 04:45:37;;;;;;;23.00;7.43;;;3.30;99.90;;;;;;5066722;28;20025;-48
2024/02/01 04:48:10;;;;;;;36.28;7.78;;;3.30;99.90;;;;;;5067824;28;20025;-46
2024/02/01 04:50:36;;;;;;;19.08;4.93;;;3.20;99.90;;;;;;5067803;28;20045;-45
2024/02/01 04:53:02;;;;;;;18.13;4.57;;;3.20;99.90;;;;;;5067776;28;20070;-48
2024/02/01 04:55:28;;;;;;;14.18;3.88;;;3.30;99.90;;;;;;5067610;28;20025;-46
2024/02/01 04:57:53;;;;;;;13.35;3.28;;;3.20;99.90;;;;;;5067652;28;20044;-46
2024/02/01 05:00:21;;;;;;;15.18;3.35;;;3.20;99.90;;;;;;5067533;28;20041;-49
2024/02/01 05:02:47;;;;;;;12.98;3.10;;;3.20;99.90;;;;;;5067648;28;20019;-45
2024/02/01 05:05:14;;;;;;;13.02;2.60;;;3.30;99.90;;;;;;5066627;28;20033;-47
2024/02/01 05:07:40;;;;;;;15.75;3.05;;;3.40;99.90;;;;;;5067691;28;20091;-46
2024/02/01 05:10:12;;;;;;;19.60;3.30;;;3.40;99.90;;;;;;5067245;28;20016;-46
2024/02/01 05:12:38;;;;;;;14.05;2.67;;;3.50;99.90;;;;;;5067402;28;20059;-48
2024/02/01 05:15:08;;;;;;;14.25;2.88;;;3.50;99.90;;;;;;5067368;28;20183;-45
2024/02/01 05:17:34;;;;;;;14.35;3.15;;;3.50;99.90;;;;;;5067077;28;20071;-45
2024/02/01 05:20:00;;;;;;;15.23;2.72;;;3.60;99.90;;;;;;5067077;28;20036;-48
2024/02/01 05:22:29;;;;;;;16.67;2.78;;;3.60;99.90;;;;;;5067118;28;20081;-48
2024/02/01 05:24:54;;;;;;;15.88;3.13;;;3.60;99.90;;;;;;5067181;28;20025;-45
2024/02/01 05:27:20;;;;;;;11.32;2.75;;;3.60;99.90;;;;;;5065809;28;20025;-45
2024/02/01 05:29:49;;;;;;;14.85;2.30;;;3.50;99.90;;;;;;5067146;28;20344;-45
2024/02/01 05:32:16;;;;;;;14.03;2.57;;;3.50;99.90;;;;;;5066544;28;20035;-48
2024/02/01 05:34:41;;;;;;;14.65;3.20;;;3.50;99.90;;;;;;5066514;28;20258;-45
2024/02/01 05:37:08;;;;;;;14.57;3.10;;;3.50;99.90;;;;;;5066965;28;20317;-46
2024/02/01 05:39:34;;;;;;;10.32;2.85;;;3.60;99.90;;;;;;5066655;28;20021;-48
2024/02/01 05:42:01;;;;;;;11.68;2.58;;;3.60;99.90;;;;;;5066991;28;20021;-46
2024/02/01 05:44:27;;;;;;;15.23;2.97;;;3.50;99.90;;;;;;5066926;28;20025;-46
2024/02/01 05:46:54;;;;;;;15.05;3.25;;;3.50;99.90;;;;;;5065739;28;20179;-46
2024/02/01 05:49:28;;;;;;;12.82;2.80;;;3.40;99.90;;;;;;5065398;28;20025;-47
2024/02/01 05:51:54;;;;;;;12.10;2.72;;;3.40;99.90;;;;;;5066627;28;20259;-47
2024/02/01 05:54:20;;;;;;;10.13;2.90;;;3.50;99.90;;;;;;5066575;28;20036;-49
2024/02/01 05:56:49;;;;;;;13.85;2.70;;;3.40;99.90;;;;;;5065633;28;20017;-47
2024/02/01 05:59:16;;;;;;;23.40;3.45;;;3.50;99.90;;;;;;5066389;28;20194;-46
2024/02/01 06:01:44;;;;;;;18.73;3.10;;;3.40;99.90;;;;;;5066249;28;20021;-46
2024/02/01 06:04:10;;;;;;;13.73;3.25;;;3.40;99.90;;;;;;5065516;28;20025;-47
2024/02/01 06:06:56;;;;;;;19.25;3.20;;;3.50;99.90;;;;;;5048826;28;20044;-49
2024/02/01 06:09:22;;;;;;;17.88;2.67;;;3.50;99.90;;;;;;5065586;28;20118;-47
2024/02/01 06:11:48;;;;;;;25.23;3.60;;;3.50;99.90;;;;;;5065442;28;20020;-47
2024/02/01 06:14:14;;;;;;;18.63;3.35;;;3.50;99.90;;;;;;5066190;28;20026;-47
2024/02/01 06:16:40;;;;;;;22.13;3.60;;;3.50;99.90;;;;;;5065772;28;20106;-45
2024/02/01 06:19:06;;;;;;;16.60;3.95;;;3.50;99.90;;;;;;5065532;28;20104;-47
2024/02/01 06:21:31;;;;;;;33.38;5.35;;;3.50;99.90;;;;;;5065114;28;20036;-48
2024/02/01 06:23:58;;;;;;;20.58;4.13;;;3.50;99.90;;;;;;5065825;28;20020;-46
2024/02/01 06:26:27;;;;;;;20.77;4.10;;;3.50;99.90;;;;;;5065846;28;20086;-48
2024/02/01 06:28:59;;;;;;;19.42;4.35;;;3.50;99.90;;;;;;5064889;28;20028;-48
2024/02/01 06:31:25;;;;;;;17.05;3.38;;;3.50;99.90;;;;;;5065587;28;20044;-45
2024/02/01 06:33:51;;;;;;;15.40;3.38;;;3.50;99.90;;;;;;5064698;28;20086;-47
2024/02/01 06:36:23;;;;;;;14.65;2.83;;;3.50;99.90;;;;;;5065340;28;20085;-46
2024/02/01 06:42:14;;;;;;;17.98;2.80;;;3.40;99.90;;;;;;5065852;28;20041;-45
2024/02/01 06:44:22;;;;;;;11.45;2.95;;;3.40;99.90;;;;;;5067814;28;20147;-46
2024/02/01 06:57:45;;;;;;;21.08;4.88;;;3.50;99.90;;;;;;5064478;28;20039;-45
2024/02/01 07:03:02;;;;;;;21.35;6.65;;;3.40;99.90;;;;;;5065248;28;20086;-46
2024/02/01 07:08:13;;;;;;;18.88;4.25;;;3.40;99.90;;;;;;5065229;28;20314;-44
2024/02/01 07:10:47;;;;;;;15.13;4.70;;;3.40;99.90;;;;;;5065274;28;20029;-45
2024/02/01 07:13:34;;;;;;;14.00;3.85;;;3.50;99.90;;;;;;5065365;28;20044;-48
2024/02/01 07:16:13;;;;;;;13.77;3.50;;;3.50;99.90;;;;;;5065119;28;20144;-46
2024/02/01 07:18:43;;;;;;;17.77;3.33;;;3.40;99.90;;;;;;5065231;28;20048;-45
2024/02/01 07:21:29;;;;;;;15.93;3.40;;;3.30;99.90;;;;;;5065042;28;20160;-46
2024/02/01 07:24:07;;;;;;;22.23;3.30;;;3.40;99.90;;;;;;5064855;28;20029;-44
2024/02/01 07:57:35;;;;;;;19.05;3.10;;;3.60;99.90;;;;;;5064650;28;20044;-45
2024/02/01 07:59:28;;;;;;;16.83;3.88;;;3.90;99.90;;;;;;5068225;28;20032;-45
2024/02/01 08:02:13;;;;;;;16.45;2.95;;;3.90;99.90;;;;;;5068134;28;20025;-46
2024/02/01 08:10:08;;;;;;;17.77;3.13;;;4.20;99.90;;;;;;5068164;28;20218;-46
2024/02/01 08:12:34;;;;;;;17.15;2.80;;;4.40;99.90;;;;;;5067809;28;20049;-47
2024/02/01 08:15:00;;;;;;;11.75;2.70;;;4.40;99.90;;;;;;5068229;28;20020;-47
2024/02/01 08:17:26;;;;;;;13.38;2.65;;;4.40;99.90;;;;;;5068025;28;20081;-45
2024/02/01 08:19:51;;;;;;;14.93;2.45;;;4.40;99.90;;;;;;5067994;28;20051;-45
2024/02/01 08:22:18;;;;;;;16.48;3.10;;;4.30;99.90;;;;;;5067809;28;20091;-45
2024/02/01 08:24:43;;;;;;;12.38;2.63;;;4.30;99.90;;;;;;5068075;28;20021;-45
2024/02/01 08:27:14;;;;;;;13.73;2.75;;;4.30;99.90;;;;;;5067940;28;20086;-45
2024/02/01 08:29:39;;;;;;;19.95;5.38;;;4.30;99.90;;;;;;5067569;28;20025;-46
2024/02/01 08:32:06;;;;;;;28.13;9.07;;;4.30;99.90;;;;;;5066990;28;20191;-45
2024/02/01 08:34:31;;;;;;;21.88;7.40;;;4.30;99.90;;;;;;5067719;28;20037;-45
2024/02/01 08:36:57;;;;;;;19.52;6.10;;;4.40;99.90;;;;;;5066709;28;20021;-46
2024/02/01 08:39:24;;;;;;;24.15;5.57;;;4.40;99.90;;;;;;5066403;28;20025;-46
2024/02/01 08:41:50;;;;;;;17.63;4.22;;;4.50;99.90;;;;;;5067485;28;20025;-45
2024/02/01 08:44:16;;;;;;;10.88;2.30;;;4.60;99.90;;;;;;5067437;28;20082;-45
2024/02/01 08:46:42;;;;;;;14.43;2.95;;;4.70;99.90;;;;;;5067385;28;20131;-46
2024/02/01 08:49:08;;;;;;;16.20;3.50;;;4.70;99.90;;;;;;5067368;28;20029;-51
2024/02/01 08:51:36;;;;;;;16.67;3.90;;;4.90;99.90;;;;;;5067257;28;20037;-46
2024/02/01 08:54:01;;;;;;;17.63;4.97;;;5.10;99.90;;;;;;5067295;28;20020;-46
2024/02/01 08:56:36;;;;;;;15.70;2.90;;;5.20;99.90;;;;;;5067240;28;20079;-45
2024/02/01 08:59:03;;;;;;;11.10;2.88;;;5.40;99.90;;;;;;5067117;28;20024;-45
2024/02/01 09:01:30;;;;;;;13.80;2.80;;;5.50;99.90;;;;;;5067325;28;20033;-46
2024/02/01 09:03:56;;;;;;;14.50;5.78;;;5.50;99.90;;;;;;5067195;28;20099;-46
2024/02/01 09:06:22;;;;;;;15.38;5.13;;;5.50;99.90;;;;;;5066148;28;20214;-46
2024/02/01 09:08:47;;;;;;;19.40;5.88;;;5.50;99.90;;;;;;5067181;28;20033;-46
2024/02/01 09:11:15;;;;;;;18.60;6.93;;;5.50;99.90;;;;;;5067182;28;20326;-47
2024/02/01 09:13:47;;;;;;;15.55;5.03;;;5.40;99.90;;;;;;5067078;28;20028;-46
2024/02/01 09:16:23;;;;;;;17.33;4.72;;;5.50;99.90;;;;;;5066491;28;20278;-45
2024/02/01 09:18:49;;;;;;;14.00;3.95;;;5.50;99.90;;;;;;5066549;28;20299;-47
2024/02/01 09:21:14;;;;;;;16.25;4.78;;;5.50;99.90;;;;;;5067012;28;20064;-48
2024/02/01 09:23:40;;;;;;;18.02;5.35;;;5.50;99.90;;;;;;5066767;28;20020;-47
2024/02/01 09:26:08;;;;;;;19.08;5.40;;;5.50;99.90;;;;;;5065935;28;20025;-47
2024/02/01 09:28:34;;;;;;;14.63;4.25;;;5.50;99.90;;;;;;5065730;28;20032;-47
2024/02/01 09:31:00;;;;;;;12.10;2.45;;;5.60;99.90;;;;;;5066690;28;20036;-49
2024/02/01 09:33:27;;;;;;;14.45;4.13;;;5.60;99.90;;;;;;5066569;28;20095;-50
2024/02/01 09:35:53;;;;;;;12.40;2.70;;;5.70;99.90;;;;;;5049020;28;20040;-47
2024/02/01 09:38:19;;;;;;;16.17;3.42;;;5.70;99.90;;;;;;5066657;28;20025;-50
2024/02/01 09:40:48;;;;;;;11.50;2.90;;;5.60;99.90;;;;;;5066652;28;20024;-51
2024/02/01 09:43:20;;;;;;;16.98;5.60;;;5.60;99.90;;;;;;5066755;28;20064;-50
2024/02/01 09:45:49;;;;;;;9.55;2.90;;;5.80;99.90;;;;;;5066250;28;20031;-49
2024/02/01 09:48:18;;;;;;;11.93;3.35;;;5.90;99.90;;;;;;5065080;28;20104;-48
2024/02/01 09:50:53;;;;;;;16.92;3.95;;;6.00;99.90;;;;;;5066514;28;20035;-51
2024/02/01 09:53:23;;;;;;;45.08;8.90;;;6.30;99.90;;;;;;5066123;28;20086;-50
2024/02/01 09:55:54;;;;;;;12.50;3.92;;;6.90;99.90;;;;;;5066418;28;20044;-50
2024/02/01 09:58:20;;;;;;;15.07;3.45;;;7.20;99.90;;;;;;5066259;28;20032;-49
2024/02/01 10:00:46;;;;;;;14.15;3.10;;;7.50;99.90;;;;;;5065931;28;20029;-50
2024/02/01 10:03:22;;;;;;;14.50;2.63;;;7.80;99.90;;;;;;5065708;28;20067;-51
2024/02/01 10:05:48;;;;;;;17.77;5.72;;;8.10;99.90;;;;;;5066110;28;20298;-49
2024/02/01 10:08:14;;;;;;;20.27;6.50;;;8.50;99.90;;;;;;5065217;28;20031;-52
2024/02/01 10:10:41;;;;;;;21.13;5.63;;;8.80;99.90;;;;;;5066195;28;20028;-51
2024/02/01 10:13:13;;;;;;;17.23;3.90;;;9.00;99.90;;;;;;5064656;28;20075;-51
2024/02/01 10:15:45;;;;;;;12.23;3.70;;;8.90;99.90;;;;;;5065929;28;20037;-47
2024/02/01 10:18:21;;;;;;;6.07;2.30;;;8.90;99.90;;;;;;5064675;28;20155;-49
2024/02/01 10:20:51;;;;;;;10.07;2.42;;;8.70;99.90;;;;;;5065332;28;20071;-48
2024/02/01 10:23:19;;;;;;;12.65;2.65;;;8.70;99.90;;;;;;5065928;28;20033;-49
2024/02/01 10:25:46;;;;;;;13.40;2.28;;;8.60;99.90;;;;;;5048651;28;20029;-47
2024/02/01 10:28:18;;;;;;;9.07;2.28;;;8.40;99.90;;;;;;5065473;28;20152;-46
2024/02/01 10:30:45;;;;;;;13.98;2.15;;;8.40;99.90;;;;;;5065862;28;20041;-48
2024/02/01 10:33:12;;;;;;;14.02;3.28;;;8.30;99.90;;;;;;5064805;28;20024;-48
2024/02/01 10:35:38;;;;;;;12.63;3.00;;;8.30;99.90;;;;;;5065652;28;20016;-50
2024/02/01 10:38:11;;;;;;;18.63;3.42;;;8.20;99.90;;;;;;5065463;28;20025;-49
2024/02/01 10:41:01;;;;;;;18.30;3.25;;;8.10;99.90;;;;;;5066176;28;20048;-49
2024/02/01 10:43:28;;;;;;;9.23;3.13;;;8.00;99.90;;;;;;5065362;28;20037;-49
2024/02/01 10:46:06;;;;;;;15.48;3.35;;;8.00;99.90;;;;;;5065194;28;20029;-50
2024/02/01 10:49:02;;;;;;;19.55;3.58;;;8.00;99.90;;;;;;5065276;28;20040;-50
2024/02/01 10:51:27;;;;;;;12.43;3.05;;;8.20;99.90;;;;;;5065372;28;20201;-50
2024/02/01 10:53:53;;;;;;;15.95;3.05;;;8.20;99.90;;;;;;5048028;28;20078;-49
2024/02/01 10:56:19;;;;;;;11.63;2.88;;;8.20;99.90;;;;;;5064358;28;20279;-49
2024/02/01 10:58:49;;;;;;;16.20;3.38;;;8.20;99.90;;;;;;5065411;28;20021;-48
2024/02/01 11:01:17;;;;;;;15.40;4.60;;;8.40;99.90;;;;;;5065328;28;20041;-46
2024/02/01 11:03:53;;;;;;;16.52;3.33;;;8.80;99.90;;;;;;5064310;28;20028;-47
2024/02/01 11:06:19;;;;;;;14.98;2.90;;;8.90;99.90;;;;;;5064359;28;20040;-48
2024/02/01 11:08:51;;;;;;;11.85;2.40;;;9.00;99.90;;;;;;5065187;28;20194;-48
2024/02/01 11:11:37;;;;;;;15.38;2.17;;;9.00;99.90;;;;;;5064080;28;20077;-51
2024/02/01 11:14:06;;;;;;;14.70;3.08;;;9.00;99.90;;;;;;5064618;28;20116;-48
2024/02/01 11:16:42;;;;;;;7.90;2.35;;;9.10;99.90;;;;;;5064539;28;20040;-50
2024/02/01 11:19:12;;;;;;;14.63;3.38;;;9.10;99.90;;;;;;5065147;28;20055;-47
2024/02/01 11:21:55;;;;;;;14.00;2.95;;;9.30;99.90;;;;;;5047212;28;20082;-50
2024/02/01 11:24:28;;;;;;;15.52;2.67;;;9.60;99.90;;;;;;5065430;28;20036;-47
2024/02/01 11:26:57;;;;;;;30.17;10.98;;;9.60;99.90;;;;;;5068486;28;20092;-48
2024/02/01 11:29:27;;;;;;;195.25;112.47;;;9.70;99.90;;;;;;5069168;28;20035;-48
2024/02/01 11:31:57;;;;;;;33.72;16.80;;;9.70;99.90;;;;;;5069035;28;20024;-49
2024/02/01 11:34:26;;;;;;;19.05;7.35;;;9.50;99.90;;;;;;5069090;28;20088;-50
2024/02/01 11:36:52;;;;;;;14.10;4.63;;;9.30;99.90;;;;;;5069060;28;20043;-51
2024/02/01 11:39:17;;;;;;;15.10;2.80;;;9.10;99.90;;;;;;5068935;28;20024;-47
2024/02/01 11:41:48;;;;;;;21.42;7.88;;;8.90;99.90;;;;;;5067606;28;20055;-48
2024/02/01 11:44:20;;;;;;;13.90;4.18;;;8.90;99.90;;;;;;5068108;28;20028;-47
2024/02/01 11:46:46;;;;;;;9.85;2.60;;;9.00;99.90;;;;;;5067650;28;20039;-49
2024/02/01 11:49:20;;;;;;;15.45;3.17;;;9.40;99.90;;;;;;5067593;28;20033;-47
2024/02/01 11:51:46;;;;;;;14.15;3.03;;;9.70;99.90;;;;;;5068649;28;20024;-50
2024/02/01 11:54:12;;;;;;;15.40;2.83;;;9.70;99.90;;;;;;5067546;28;20084;-50
2024/02/01 11:56:39;;;;;;;11.50;2.25;;;9.40;99.90;;;;;;5068438;28;20048;-50
2024/02/01 11:59:06;;;;;;;13.23;2.53;;;9.30;99.90;;;;;;5068589;28;20017;-49
2024/02/01 12:01:32;;;;;;;10.02;2.40;;;9.30;99.90;;;;;;5068219;28;20028;-50
2024/02/01 12:03:58;;;;;;;10.25;2.30;;;9.40;99.90;;;;;;5067136;28;20182;-50
2024/02/01 12:06:24;;;;;;;11.57;2.30;;;9.90;99.90;;;;;;5067268;28;20032;-50
2024/02/01 12:08:54;;;;;;;12.25;5.57;;;10.70;99.90;;;;;;5068059;28;20053;-52
2024/02/01 12:11:23;;;;;;;23.33;8.50;;;11.20;99.90;;;;;;5066816;28;20261;-48
2024/02/01 12:13:51;;;;;;;14.23;4.38;;;11.30;99.90;;;;;;5068101;28;20183;-50
2024/02/01 12:16:25;;;;;;;15.48;2.33;;;11.60;99.90;;;;;;5067807;28;20294;-49
2024/02/01 12:18:52;;;;;;;7.10;2.90;;;12.70;99.90;;;;;;5066858;28;20040;-48
2024/02/01 12:21:26;;;;;;;8.35;2.20;;;12.20;99.90;;;;;;5067490;28;20287;-50
2024/02/01 12:24:01;;;;;;;11.18;2.03;;;12.40;99.90;;;;;;5068001;28;20080;-47
2024/02/01 12:26:27;;;;;;;14.27;2.55;;;11.60;99.90;;;;;;5067597;28;20043;-50
2024/02/01 12:28:56;;;;;;;9.75;2.03;;;11.30;99.90;;;;;;5066744;28;20036;-47
2024/02/01 12:31:22;;;;;;;13.60;3.42;;;12.00;99.90;;;;;;5067587;28;20032;-51
2024/02/01 12:33:53;;;;;;;34.78;15.48;;;12.80;99.90;;;;;;5067566;28;20092;-48
2024/02/01 12:36:19;;;;;;;19.80;9.52;;;13.70;99.90;;;;;;5066065;28;20048;-52
2024/02/01 12:38:44;;;;;;;12.68;2.90;;;14.00;99.90;;;;;;5067791;28;20025;-52
2024/02/01 12:41:14;;;;;;;8.00;2.33;;;14.50;99.90;;;;;;5067955;28;20056;-52
2024/02/01 12:43:40;;;;;;;8.27;3.10;;;14.20;99.90;;;;;;5067750;28;20095;-52
2024/02/01 12:46:09;;;;;;;11.23;3.78;;;13.70;99.90;;;;;;5066279;28;20055;-52
2024/02/01 12:48:37;;;;;;;13.27;3.08;;;12.80;99.90;;;;;;5067540;28;20036;-52
2024/02/01 12:51:03;;;;;;;6.82;2.63;;;11.70;99.90;;;;;;5066295;28;20025;-52
2024/02/01 12:53:29;;;;;;;16.10;3.40;;;11.30;99.90;;;;;;5067306;28;20194;-52
2024/02/01 12:55:55;;;;;;;11.68;2.78;;;10.80;99.90;;;;;;5066253;28;20092;-52
2024/02/01 12:58:20;;;;;;;12.98;4.85;;;10.50;99.90;;;;;;5066867;28;20301;-51
2024/02/01 13:00:46;;;;;;;14.73;5.60;;;10.40;99.90;;;;;;5067446;28;20048;-51
2024/02/01 13:03:11;;;;;;;16.17;3.58;;;10.50;99.90;;;;;;5066235;28;20041;-52
2024/02/01 13:05:37;;;;;;;13.40;4.93;;;10.50;99.90;;;;;;5067354;28;20020;-51
2024/02/01 13:08:06;;;;;;;15.20;3.00;;;10.30;99.90;;;;;;5067209;28;20029;-51
2024/02/01 13:10:38;;;;;;;11.82;2.33;;;10.20;99.90;;;;;;5067070;28;20036;-48
2024/02/01 13:13:07;;;;;;;17.27;5.68;;;10.10;99.90;;;;;;5067045;28;20085;-48
2024/02/01 13:15:34;;;;;;;11.80;4.60;;;9.60;99.90;;;;;;5065802;28;20082;-51
2024/02/01 13:17:59;;;;;;;23.02;5.93;;;9.70;99.90;;;;;;5066655;28;20045;-49
2024/02/01 13:20:26;;;;;;;14.85;3.13;;;9.70;99.90;;;;;;5067124;28;20151;-47
2024/02/01 13:22:52;;;;;;;9.05;2.78;;;9.60;99.90;;;;;;5067083;28;20021;-48
2024/02/01 13:25:21;;;;;;;12.05;2.83;;;9.40;99.90;;;;;;5066475;28;20040;-51
2024/02/01 13:27:48;;;;;;;12.63;3.30;;;9.40;99.90;;;;;;5066641;28;20021;-47
2024/02/01 13:30:15;;;;;;;15.50;2.90;;;9.50;99.90;;;;;;5066384;28;20106;-49
2024/02/01 13:32:42;;;;;;;15.85;3.50;;;9.50;99.90;;;;;;5065783;28;20028;-47
2024/02/01 13:35:08;;;;;;;17.40;2.88;;;9.60;99.90;;;;;;5066858;28;20017;-47
2024/02/01 13:37:34;;;;;;;10.82;2.15;;;9.90;99.90;;;;;;5066494;28;20021;-47
2024/02/01 13:40:07;;;;;;;9.48;1.90;;;10.00;99.90;;;;;;5066656;28;20028;-48
2024/02/01 13:42:35;;;;;;;10.60;2.28;;;10.00;99.90;;;;;;5065445;28;20052;-50
2024/02/01 13:45:02;;;;;;;13.15;2.45;;;9.90;99.90;;;;;;5066339;28;20190;-50